Time;durP1;ratioP1;P1;durP2;ratioP2;P2;SDS_P1;SDS_P2;PMS_P1;PMS_P2;Temp;Humidity;BMP_temperature;BMP_pressure;BME280_temperature;BME280_humidity;BME280_pressure;Samples;Min_cycle;Max_cycle;Signal;HPM_P1;HPM_P2
2022/10/21 00:00:24;;;;;;;16.50;9.50;;;13.10;90.10;;;;;;5090905;28;20466;-65
2022/10/21 00:02:51;;;;;;;15.07;10.00;;;13.10;90.20;;;;;;5090802;28;20116;-65
2022/10/21 00:05:23;;;;;;;12.75;9.48;;;13.10;90.20;;;;;;5098170;27;20047;-66
2022/10/21 00:07:53;;;;;;;13.65;9.02;;;13.10;89.90;;;;;;5090006;27;20187;-65
2022/10/21 00:10:20;;;;;;;13.02;9.40;;;13.10;90.20;;;;;;5086855;28;20059;-66
2022/10/21 00:12:47;;;;;;;15.30;8.65;;;13.10;90.20;;;;;;5096211;28;20327;-65
2022/10/21 00:15:15;;;;;;;15.82;10.50;;;13.10;90.00;;;;;;5090802;28;20044;-66
2022/10/21 00:17:43;;;;;;;14.88;9.02;;;13.10;89.70;;;;;;5110758;28;20051;-65
2022/10/21 00:20:12;;;;;;;14.25;9.15;;;13.10;90.00;;;;;;5104271;28;20065;-64
2022/10/21 00:22:40;;;;;;;14.65;9.38;;;13.10;90.10;;;;;;5093459;28;20509;-65
2022/10/21 00:25:08;;;;;;;15.68;9.13;;;13.10;90.30;;;;;;5093263;28;20047;-65
2022/10/21 00:27:34;;;;;;;14.77;8.90;;;13.10;90.20;;;;;;5096262;28;20039;-63
2022/10/21 00:30:06;;;;;;;11.73;8.18;;;13.10;90.30;;;;;;5090426;28;20040;-64
2022/10/21 00:32:33;;;;;;;14.90;9.27;;;13.10;90.20;;;;;;5094326;28;20416;-65
2022/10/21 00:35:00;;;;;;;13.23;8.43;;;13.10;90.20;;;;;;5091821;28;20074;-63
2022/10/21 00:37:30;;;;;;;12.65;8.30;;;13.10;90.10;;;;;;5093331;28;20503;-65
2022/10/21 00:39:58;;;;;;;12.57;8.32;;;13.10;90.30;;;;;;5082531;28;20091;-65
2022/10/21 00:42:32;;;;;;;12.90;8.35;;;13.20;90.30;;;;;;5072411;28;20048;-64
2022/10/21 00:45:26;;;;;;;15.05;8.25;;;13.10;90.20;;;;;;5081802;28;20076;-64
2022/10/21 00:47:58;;;;;;;10.52;7.43;;;13.10;89.90;;;;;;5057588;28;20051;-65
2022/10/21 00:50:31;;;;;;;11.02;7.38;;;13.10;90.00;;;;;;5083360;28;20050;-65
2022/10/21 00:53:00;;;;;;;12.45;7.60;;;13.10;89.80;;;;;;5093055;28;20050;-64
2022/10/21 00:55:35;;;;;;;11.20;6.80;;;13.10;90.00;;;;;;5088311;28;20040;-65
2022/10/21 00:58:03;;;;;;;10.45;7.50;;;13.10;90.00;;;;;;5090540;28;20051;-65
2022/10/21 01:00:30;;;;;;;10.38;7.25;;;13.10;90.20;;;;;;5090895;28;20048;-64
2022/10/21 01:02:57;;;;;;;10.27;6.68;;;13.10;90.40;;;;;;5092015;28;20043;-64
2022/10/21 01:05:25;;;;;;;11.43;7.45;;;13.10;90.20;;;;;;5086569;28;20168;-64
2022/10/21 01:07:52;;;;;;;11.02;7.03;;;13.10;90.40;;;;;;5088511;28;20048;-64
2022/10/21 01:10:19;;;;;;;11.88;7.57;;;13.10;89.90;;;;;;5089322;28;20040;-66
2022/10/21 01:13:11;;;;;;;14.85;8.52;;;13.10;89.70;;;;;;5092200;28;20490;-65
2022/10/21 01:15:44;;;;;;;13.20;7.90;;;13.10;89.90;;;;;;5091928;28;20755;-65
2022/10/21 01:18:21;;;;;;;11.57;7.43;;;13.10;90.40;;;;;;5096284;28;20893;-65
2022/10/21 01:21:09;;;;;;;14.80;7.88;;;13.10;89.80;;;;;;5083312;28;21156;-65
2022/10/21 01:24:16;;;;;;;11.80;7.70;;;13.10;89.90;;;;;;5096927;28;20044;-65
2022/10/21 01:27:25;;;;;;;12.00;6.80;;;13.10;90.10;;;;;;5087546;28;20071;-66
2022/10/21 01:30:17;;;;;;;10.80;7.47;;;13.10;90.50;;;;;;5013288;28;20058;-65
2022/10/21 01:32:59;;;;;;;10.88;7.20;;;13.10;90.00;;;;;;5087869;28;20404;-64
2022/10/21 01:35:35;;;;;;;11.23;7.00;;;13.10;89.90;;;;;;5091801;28;20040;-65
2022/10/21 01:38:09;;;;;;;9.35;6.15;;;13.10;90.00;;;;;;5097341;28;20504;-64
2022/10/21 01:40:43;;;;;;;11.15;6.72;;;13.00;90.30;;;;;;5093927;28;20055;-65
2022/10/21 01:43:17;;;;;;;13.77;7.30;;;13.00;90.30;;;;;;5091981;28;20055;-65
2022/10/21 01:45:49;;;;;;;11.70;7.03;;;13.00;90.30;;;;;;5090709;27;20047;-65
2022/10/21 01:48:21;;;;;;;10.70;6.30;;;13.00;90.30;;;;;;5092731;28;20094;-65
2022/10/21 01:50:53;;;;;;;11.07;6.80;;;12.90;90.40;;;;;;5097461;28;20054;-64
2022/10/21 01:53:26;;;;;;;10.95;6.20;;;12.90;90.20;;;;;;5092786;28;20535;-64
2022/10/21 01:55:54;;;;;;;9.10;6.45;;;12.90;90.10;;;;;;5089146;28;20171;-65
2022/10/21 01:58:28;;;;;;;9.50;6.13;;;13.00;90.10;;;;;;5095175;28;20138;-65
2022/10/21 02:00:58;;;;;;;9.95;6.18;;;12.90;90.10;;;;;;5096335;28;20105;-65
2022/10/21 02:03:30;;;;;;;8.68;6.05;;;12.90;90.30;;;;;;5095365;28;20896;-64
2022/10/21 02:05:57;;;;;;;8.55;5.93;;;12.90;90.20;;;;;;5095958;28;20047;-64
2022/10/21 02:08:24;;;;;;;8.90;6.15;;;12.90;90.20;;;;;;5094803;28;20056;-64
2022/10/21 02:10:55;;;;;;;11.23;6.82;;;12.90;90.10;;;;;;5100315;27;20109;-63
2022/10/21 02:13:26;;;;;;;11.48;6.15;;;12.90;90.10;;;;;;5096406;28;20052;-63
2022/10/21 02:15:54;;;;;;;;;;;12.90;90.10;;;;;;5099989;27;20124;-65
2022/10/21 02:18:23;;;;;;;11.07;6.55;;;12.90;90.10;;;;;;5101542;28;20225;-66
2022/10/21 02:20:56;;;;;;;11.52;7.00;;;12.90;90.10;;;;;;5097547;28;20051;-65
2022/10/21 02:23:30;;;;;;;8.45;6.30;;;12.90;90.20;;;;;;5095828;28;20064;-64
2022/10/21 02:25:57;;;;;;;11.60;6.90;;;12.90;90.20;;;;;;5096047;28;20074;-64
2022/10/21 02:28:24;;;;;;;12.02;7.75;;;12.90;90.50;;;;;;5097128;28;20054;-64
2022/10/21 02:31:03;;;;;;;10.40;7.00;;;12.90;90.40;;;;;;5086805;28;20054;-65
2022/10/21 02:33:39;;;;;;;12.57;7.10;;;12.90;90.20;;;;;;5096575;27;20051;-64
2022/10/21 02:36:15;;;;;;;10.80;7.13;;;12.90;90.40;;;;;;5098113;28;20048;-64
2022/10/21 02:38:47;;;;;;;11.63;7.05;;;12.90;90.20;;;;;;5090427;28;20054;-64
2022/10/21 02:41:18;;;;;;;9.25;6.43;;;12.90;90.20;;;;;;5093651;27;20553;-65
2022/10/21 02:43:50;;;;;;;11.52;6.85;;;12.80;90.30;;;;;;5097461;28;20514;-64
2022/10/21 02:46:17;;;;;;;10.38;6.03;;;12.80;90.20;;;;;;5093088;28;20051;-65
2022/10/21 02:48:46;;;;;;;11.02;6.53;;;12.80;90.40;;;;;;5098237;28;20040;-66
2022/10/21 02:51:15;;;;;;;10.43;6.22;;;12.80;90.40;;;;;;5093999;28;20525;-65
2022/10/21 02:53:43;;;;;;;9.25;6.28;;;12.80;90.30;;;;;;5093151;28;20135;-65
2022/10/21 02:56:09;;;;;;;10.02;6.07;;;12.80;90.30;;;;;;5090050;27;20067;-65
2022/10/21 02:58:37;;;;;;;10.40;6.45;;;12.80;90.30;;;;;;5101329;28;20062;-64
2022/10/21 03:01:04;;;;;;;10.65;6.97;;;12.70;90.20;;;;;;5100086;28;20040;-65
2022/10/21 03:03:30;;;;;;;10.15;6.80;;;12.80;90.10;;;;;;5098993;28;20126;-64
2022/10/21 03:05:59;;;;;;;12.00;6.65;;;12.80;90.00;;;;;;5094335;28;20505;-65
2022/10/21 03:08:27;;;;;;;9.98;6.10;;;12.80;90.10;;;;;;5092473;27;20059;-65
2022/10/21 03:10:55;;;;;;;8.43;5.90;;;12.80;90.20;;;;;;5093006;28;20382;-64
2022/10/21 03:13:22;;;;;;;10.02;6.63;;;12.70;90.20;;;;;;5090788;27;20132;-64
2022/10/21 03:15:52;;;;;;;11.95;6.63;;;12.80;90.20;;;;;;5094421;28;20041;-64
2022/10/21 03:18:19;;;;;;;10.57;6.97;;;12.80;90.20;;;;;;5092429;27;20071;-65
2022/10/21 03:20:50;;;;;;;9.30;6.30;;;12.70;90.20;;;;;;5088409;28;20043;-65
2022/10/21 03:23:19;;;;;;;12.23;6.78;;;12.70;90.30;;;;;;5094892;28;20063;-64
2022/10/21 03:25:52;;;;;;;10.73;6.15;;;12.70;90.40;;;;;;5091479;28;20064;-65
2022/10/21 03:28:20;;;;;;;12.00;6.57;;;12.70;90.30;;;;;;5087289;28;20145;-64
2022/10/21 03:30:48;;;;;;;11.43;6.75;;;12.70;90.20;;;;;;5090124;28;20089;-65
2022/10/21 03:33:16;;;;;;;11.60;7.10;;;12.80;90.20;;;;;;5091815;28;20060;-64
2022/10/21 03:35:42;;;;;;;13.80;7.43;;;12.80;90.20;;;;;;5088698;28;20509;-66
2022/10/21 03:38:09;;;;;;;12.50;7.72;;;12.80;90.30;;;;;;5086277;28;20035;-66
2022/10/21 03:40:36;;;;;;;12.77;7.43;;;12.80;90.20;;;;;;5094020;28;20107;-66
2022/10/21 03:43:04;;;;;;;12.15;6.93;;;12.90;90.50;;;;;;5093139;28;20048;-67
2022/10/21 03:45:34;;;;;;;12.73;7.05;;;12.80;90.10;;;;;;5094881;28;20035;-66
2022/10/21 03:48:00;;;;;;;10.93;6.93;;;12.80;90.20;;;;;;5089151;27;20051;-65
2022/10/21 03:50:33;;;;;;;14.82;7.88;;;12.90;90.40;;;;;;5096025;28;20043;-66
2022/10/21 03:52:59;;;;;;;11.93;7.55;;;12.80;90.30;;;;;;5090688;28;20036;-66
2022/10/21 03:55:28;;;;;;;13.77;7.90;;;12.90;90.40;;;;;;5091784;28;20463;-66
2022/10/21 03:57:55;;;;;;;11.25;7.28;;;12.90;90.40;;;;;;5094553;28;20773;-66
2022/10/21 04:00:24;;;;;;;13.73;7.95;;;12.90;90.70;;;;;;5094672;28;20765;-66
2022/10/21 04:02:52;;;;;;;13.15;8.52;;;12.90;90.70;;;;;;5095332;28;20055;-65
2022/10/21 04:05:19;;;;;;;14.38;8.07;;;12.90;90.60;;;;;;5088461;28;20052;-65
2022/10/21 04:07:49;;;;;;;15.38;8.70;;;12.90;90.20;;;;;;5090888;28;20036;-65
2022/10/21 04:10:16;;;;;;;12.55;8.07;;;12.90;90.20;;;;;;5085158;28;20040;-65
2022/10/21 04:12:42;;;;;;;12.55;8.68;;;12.90;90.40;;;;;;5091331;28;20047;-65
2022/10/21 04:15:12;;;;;;;12.68;8.43;;;12.80;90.20;;;;;;5092245;28;20052;-64
2022/10/21 04:17:41;;;;;;;14.27;9.05;;;12.80;90.40;;;;;;5083595;28;20119;-64
2022/10/21 04:20:10;;;;;;;13.90;8.85;;;12.80;90.30;;;;;;5082993;28;20044;-64
2022/10/21 04:22:37;;;;;;;15.00;9.27;;;12.80;90.40;;;;;;5089848;28;20132;-64
2022/10/21 04:25:04;;;;;;;12.55;8.40;;;12.80;90.50;;;;;;5090009;28;20090;-64
2022/10/21 04:27:33;;;;;;;13.45;8.88;;;12.80;90.50;;;;;;5091358;28;20384;-63
2022/10/21 04:30:01;;;;;;;14.25;9.20;;;12.80;90.30;;;;;;5090866;28;20067;-65
2022/10/21 04:32:30;;;;;;;14.15;8.95;;;12.80;90.60;;;;;;5092502;28;20048;-65
2022/10/21 04:34:58;;;;;;;13.70;8.88;;;12.80;90.50;;;;;;5089747;28;20558;-65
2022/10/21 04:37:25;;;;;;;13.95;8.38;;;12.80;90.50;;;;;;5088169;28;20055;-65
2022/10/21 04:39:52;;;;;;;14.63;8.43;;;12.80;90.30;;;;;;5087410;28;20134;-64
2022/10/21 04:42:19;;;;;;;12.00;8.38;;;12.80;90.30;;;;;;5088879;27;20098;-64
2022/10/21 04:44:46;;;;;;;13.98;9.05;;;12.80;90.30;;;;;;5090941;28;20036;-65
2022/10/21 04:47:13;;;;;;;14.45;8.90;;;12.80;90.20;;;;;;5088560;28;20043;-65
2022/10/21 04:49:40;;;;;;;15.15;9.63;;;12.80;90.20;;;;;;5092745;28;20055;-63
2022/10/21 04:52:10;;;;;;;13.00;8.63;;;12.70;90.20;;;;;;5093936;28;20040;-64
2022/10/21 04:54:37;;;;;;;14.75;9.02;;;12.80;90.40;;;;;;5093243;28;20052;-65
2022/10/21 04:57:04;;;;;;;13.93;9.13;;;12.70;90.40;;;;;;5080123;28;20398;-65
2022/10/21 04:59:31;;;;;;;13.25;8.95;;;12.70;90.60;;;;;;5073267;28;21655;-65
2022/10/21 05:01:58;;;;;;;16.85;9.50;;;12.70;90.40;;;;;;5086051;28;20042;-65
2022/10/21 05:04:25;;;;;;;15.45;9.50;;;12.70;90.30;;;;;;5087550;28;20048;-65
2022/10/21 05:06:52;;;;;;;15.25;9.55;;;12.70;90.30;;;;;;5089655;28;20421;-65
2022/10/21 05:09:20;;;;;;;13.25;8.85;;;12.80;90.50;;;;;;5090994;28;20558;-65
2022/10/21 05:11:49;;;;;;;14.57;8.68;;;12.70;90.30;;;;;;5070761;28;20054;-64
2022/10/21 05:14:16;;;;;;;16.25;9.80;;;12.80;90.30;;;;;;5099654;28;20485;-64
2022/10/21 05:16:45;;;;;;;15.23;9.33;;;12.70;90.40;;;;;;5089883;28;20048;-65
2022/10/21 05:19:12;;;;;;;15.43;9.63;;;12.70;90.30;;;;;;5084344;28;20052;-63
2022/10/21 05:21:39;;;;;;;18.80;10.30;;;12.70;90.30;;;;;;5091862;28;20051;-64
2022/10/21 05:24:06;;;;;;;15.15;10.02;;;12.70;90.30;;;;;;5097606;28;20052;-64
2022/10/21 05:26:35;;;;;;;15.18;9.65;;;12.70;90.40;;;;;;5098001;28;20570;-65
2022/10/21 05:29:01;;;;;;;18.00;10.10;;;12.70;90.30;;;;;;5094698;28;20090;-64
2022/10/21 05:31:28;;;;;;;15.75;9.52;;;12.70;90.60;;;;;;5092981;28;20048;-64
2022/10/21 05:33:57;;;;;;;16.30;9.93;;;12.70;90.40;;;;;;5095506;28;20051;-63
2022/10/21 05:36:26;;;;;;;18.15;9.68;;;12.70;90.40;;;;;;5094897;28;20055;-64
2022/10/21 05:38:53;;;;;;;18.00;9.65;;;12.70;90.40;;;;;;5096218;28;20074;-64
2022/10/21 05:41:20;;;;;;;15.90;10.25;;;12.70;90.40;;;;;;5107892;28;20074;-65
2022/10/21 05:43:51;;;;;;;17.75;9.68;;;12.70;90.40;;;;;;5119069;28;20067;-65
2022/10/21 05:46:18;;;;;;;18.52;10.55;;;12.70;90.30;;;;;;5094605;28;20061;-65
2022/10/21 05:48:48;;;;;;;15.40;9.20;;;12.70;90.30;;;;;;5095940;28;20071;-65
2022/10/21 05:51:15;;;;;;;17.58;10.38;;;12.70;90.40;;;;;;5097382;28;20475;-64
2022/10/21 05:53:42;;;;;;;15.80;9.70;;;12.70;90.30;;;;;;5097413;28;20043;-64
2022/10/21 05:56:12;;;;;;;16.55;9.40;;;12.70;90.40;;;;;;5095876;28;20516;-65
2022/10/21 05:58:39;;;;;;;13.10;8.65;;;12.70;90.30;;;;;;5097805;28;20066;-64
2022/10/21 06:01:07;;;;;;;17.65;10.15;;;12.70;90.30;;;;;;5096655;28;20055;-64
2022/10/21 06:03:34;;;;;;;16.15;9.07;;;12.70;90.40;;;;;;5098404;28;20096;-64
2022/10/21 06:06:03;;;;;;;14.88;9.13;;;12.70;90.40;;;;;;5100588;28;20055;-64
2022/10/21 06:08:32;;;;;;;16.00;9.23;;;12.70;90.50;;;;;;5101516;28;20054;-65
2022/10/21 06:11:03;;;;;;;15.25;9.43;;;12.70;90.30;;;;;;5097466;27;20066;-64
2022/10/21 06:13:31;;;;;;;16.77;8.60;;;12.70;90.30;;;;;;5099171;28;20057;-64
2022/10/21 06:15:58;;;;;;;15.23;8.98;;;12.70;90.40;;;;;;5098673;28;20040;-64
2022/10/21 06:18:27;;;;;;;13.48;9.00;;;12.70;90.40;;;;;;5100740;28;20486;-64
2022/10/21 06:20:57;;;;;;;13.88;8.77;;;12.70;90.30;;;;;;5096271;28;20060;-64
2022/10/21 06:23:24;;;;;;;14.55;8.32;;;12.70;90.30;;;;;;5094875;28;20163;-64
2022/10/21 06:25:56;;;;;;;15.05;8.75;;;12.70;90.30;;;;;;5099679;28;20140;-65
2022/10/21 06:28:23;;;;;;;14.43;8.43;;;12.70;90.30;;;;;;5096453;28;20062;-64
2022/10/21 06:30:50;;;;;;;14.23;9.05;;;12.70;90.30;;;;;;5097940;28;20051;-64
2022/10/21 06:33:17;;;;;;;12.90;7.97;;;12.70;90.20;;;;;;5088467;27;20531;-64
2022/10/21 06:35:46;;;;;;;13.02;7.68;;;12.80;90.20;;;;;;5111764;27;20062;-63
2022/10/21 06:38:13;;;;;;;15.93;8.45;;;12.70;90.20;;;;;;5100161;27;20130;-64
2022/10/21 06:40:40;;;;;;;13.35;8.05;;;12.70;90.70;;;;;;5097719;28;20088;-64
2022/10/21 06:43:07;;;;;;;12.82;7.65;;;12.70;90.50;;;;;;5097821;28;20070;-64
2022/10/21 06:45:34;;;;;;;13.50;7.95;;;12.70;90.30;;;;;;5099407;27;20048;-65
2022/10/21 06:48:01;;;;;;;14.10;8.35;;;12.80;90.60;;;;;;5095397;27;20097;-65
2022/10/21 06:50:30;;;;;;;13.10;7.35;;;12.80;90.50;;;;;;5095475;27;20047;-64
2022/10/21 06:52:58;;;;;;;11.73;7.57;;;12.80;90.40;;;;;;5095771;28;20131;-64
2022/10/21 06:55:28;;;;;;;11.95;7.53;;;12.80;90.40;;;;;;5097444;28;20043;-64
2022/10/21 06:57:55;;;;;;;10.43;7.00;;;12.90;90.60;;;;;;5079409;28;20414;-64
2022/10/21 07:00:22;;;;;;;12.25;7.20;;;12.90;90.70;;;;;;5097175;28;20047;-65
2022/10/21 07:02:49;;;;;;;10.70;6.45;;;12.90;90.20;;;;;;5098708;28;20048;-65
2022/10/21 07:05:17;;;;;;;10.93;7.68;;;12.90;90.30;;;;;;5096237;28;20051;-65
2022/10/21 07:07:44;;;;;;;10.63;7.07;;;12.90;90.40;;;;;;5097403;27;20485;-64
2022/10/21 07:10:12;;;;;;;11.65;7.38;;;12.90;90.20;;;;;;5094988;27;20515;-64
2022/10/21 07:12:40;;;;;;;11.23;6.90;;;12.90;90.30;;;;;;5097938;28;20050;-65
2022/10/21 07:15:08;;;;;;;9.90;6.53;;;12.90;90.20;;;;;;5095314;27;20455;-64
2022/10/21 07:17:35;;;;;;;9.95;5.90;;;12.90;90.50;;;;;;5098367;28;20040;-65
2022/10/21 07:20:02;;;;;;;10.32;6.43;;;13.00;90.50;;;;;;5094775;28;20047;-64
2022/10/21 07:22:30;;;;;;;12.27;6.72;;;13.00;90.30;;;;;;5095009;28;20482;-64
2022/10/21 07:24:57;;;;;;;13.05;6.90;;;13.00;90.40;;;;;;5096680;28;20113;-65
2022/10/21 07:27:36;;;;;;;10.48;6.10;;;13.00;90.60;;;;;;5093813;28;20123;-64
2022/10/21 07:30:03;;;;;;;9.23;5.88;;;13.00;90.10;;;;;;5093795;28;21151;-63
2022/10/21 07:32:30;;;;;;;9.52;5.93;;;13.10;90.30;;;;;;5095789;28;20051;-65
2022/10/21 07:34:57;;;;;;;10.27;6.43;;;13.10;90.40;;;;;;5095364;28;20052;-64
2022/10/21 07:37:24;;;;;;;12.02;7.05;;;13.10;90.40;;;;;;5094990;28;20516;-64
2022/10/21 07:39:53;;;;;;;10.68;6.50;;;13.10;90.30;;;;;;5109934;27;20122;-65
2022/10/21 07:42:20;;;;;;;13.20;7.40;;;13.10;90.30;;;;;;5098187;28;20547;-64
2022/10/21 07:44:52;;;;;;;10.63;6.22;;;13.10;90.30;;;;;;5095739;28;20047;-65
2022/10/21 07:47:18;;;;;;;9.68;6.47;;;13.10;90.20;;;;;;5095551;28;20132;-65
2022/10/21 07:49:45;;;;;;;10.00;6.35;;;13.10;90.40;;;;;;5089636;28;20397;-64
2022/10/21 07:52:12;;;;;;;9.77;6.40;;;13.10;90.60;;;;;;5092113;27;20409;-64
2022/10/21 07:54:39;;;;;;;9.07;6.63;;;13.10;90.40;;;;;;5096428;28;20092;-65
2022/10/21 07:57:07;;;;;;;11.98;6.68;;;13.20;90.40;;;;;;5095540;28;20048;-65
2022/10/21 07:59:34;;;;;;;11.30;6.78;;;13.10;90.50;;;;;;5095368;28;20143;-65
2022/10/21 08:02:04;;;;;;;11.13;6.05;;;13.10;90.20;;;;;;5097297;28;20040;-70
2022/10/21 08:04:32;;;;;;;9.18;6.28;;;13.10;90.20;;;;;;5091417;28;20039;-70
2022/10/21 08:06:59;;;;;;;11.00;6.57;;;13.20;90.30;;;;;;5097035;28;20131;-71
2022/10/21 08:09:26;;;;;;;9.77;6.28;;;13.10;90.40;;;;;;5092615;28;20048;-71
2022/10/21 08:11:53;;;;;;;9.85;6.60;;;13.20;90.30;;;;;;5095707;28;20297;-71
2022/10/21 08:14:21;;;;;;;10.10;6.38;;;13.20;90.50;;;;;;5095276;28;20087;-70
2022/10/21 08:16:52;;;;;;;9.07;6.35;;;13.20;90.40;;;;;;5095390;28;20093;-71
2022/10/21 08:19:28;;;;;;;10.40;6.63;;;13.20;90.50;;;;;;5094828;28;20060;-71
2022/10/21 08:21:57;;;;;;;8.77;5.93;;;13.20;90.60;;;;;;5097160;28;20036;-71
2022/10/21 08:24:24;;;;;;;9.52;5.82;;;13.10;90.00;;;;;;5117238;28;20056;-71
2022/10/21 08:26:51;;;;;;;9.95;6.07;;;13.10;90.70;;;;;;5104778;28;20131;-70
2022/10/21 08:29:18;;;;;;;10.50;6.43;;;13.10;90.60;;;;;;5087442;28;20049;-71
2022/10/21 08:31:45;;;;;;;9.52;6.20;;;13.10;90.30;;;;;;5096305;28;20049;-70
2022/10/21 08:34:12;;;;;;;8.85;5.40;;;13.10;90.40;;;;;;5097148;28;20043;-71
2022/10/21 08:36:41;;;;;;;8.70;5.50;;;13.10;90.70;;;;;;5093775;28;20055;-71
2022/10/21 08:39:08;;;;;;;9.38;6.40;;;13.10;90.60;;;;;;5096693;28;20044;-70
2022/10/21 08:42:04;;;;;;;9.90;6.07;;;13.10;91.00;;;;;;5095203;28;20109;-70
2022/10/21 08:44:49;;;;;;;9.75;6.20;;;13.20;90.90;;;;;;5095940;28;20048;-70
2022/10/21 08:47:28;;;;;;;12.57;6.88;;;13.10;90.20;;;;;;5096381;28;20071;-70
2022/10/21 08:50:00;;;;;;;9.90;6.20;;;13.10;90.20;;;;;;5095385;28;20087;-72
2022/10/21 08:52:39;;;;;;;12.07;6.63;;;13.10;90.40;;;;;;5094865;28;20052;-70
2022/10/21 08:55:18;;;;;;;12.27;7.60;;;13.10;90.80;;;;;;5094957;28;20048;-69
2022/10/21 08:57:49;;;;;;;11.50;7.22;;;13.10;91.10;;;;;;5096467;28;20043;-70
2022/10/21 09:00:20;;;;;;;11.45;6.72;;;13.10;90.90;;;;;;5092715;28;20043;-68
2022/10/21 09:03:00;;;;;;;12.98;7.45;;;13.20;90.30;;;;;;5094826;28;20059;-71
2022/10/21 09:05:41;;;;;;;10.63;6.60;;;13.20;90.40;;;;;;5095825;28;20052;-69
2022/10/21 09:08:20;;;;;;;11.43;6.97;;;13.20;90.30;;;;;;5092831;28;20572;-70
2022/10/21 09:10:57;;;;;;;13.43;7.63;;;13.20;90.30;;;;;;5094303;28;20072;-70
2022/10/21 09:13:45;;;;;;;15.73;7.05;;;13.20;90.70;;;;;;5092642;28;20032;-70
2022/10/21 09:16:18;;;;;;;10.93;7.07;;;13.20;90.50;;;;;;5084841;28;20657;-70
2022/10/21 09:18:53;;;;;;;12.30;7.18;;;13.20;91.00;;;;;;5094874;28;20055;-70
2022/10/21 09:21:28;;;;;;;13.23;7.05;;;13.20;90.80;;;;;;5097844;28;20052;-69
2022/10/21 09:24:05;;;;;;;11.52;6.68;;;13.20;90.90;;;;;;5094381;28;20743;-69
2022/10/21 09:26:38;;;;;;;11.18;6.72;;;13.20;90.60;;;;;;5095055;28;20055;-70
2022/10/21 09:29:28;;;;;;;10.98;6.03;;;13.20;90.60;;;;;;5093645;28;20044;-70
2022/10/21 09:32:12;;;;;;;12.32;7.00;;;13.20;90.90;;;;;;5093256;28;20067;-70
2022/10/21 09:34:54;;;;;;;9.57;6.28;;;13.20;90.80;;;;;;5094055;28;20101;-69
2022/10/21 09:37:30;;;;;;;10.40;6.35;;;13.30;91.50;;;;;;5093748;28;20040;-70
2022/10/21 09:40:12;;;;;;;10.40;6.65;;;13.20;91.10;;;;;;5098614;28;20048;-70
2022/10/21 09:42:39;;;;;;;12.07;6.47;;;13.20;91.10;;;;;;5099054;28;20413;-70
2022/10/21 09:45:19;;;;;;;13.38;7.75;;;13.30;91.00;;;;;;5095024;28;20067;-70
2022/10/21 09:47:53;;;;;;;12.10;6.90;;;13.30;91.50;;;;;;5097102;28;20036;-69
2022/10/21 09:50:20;;;;;;;9.18;6.15;;;13.30;91.50;;;;;;5098312;28;20051;-70
2022/10/21 09:52:57;;;;;;;9.40;5.97;;;13.30;91.50;;;;;;5099169;28;20051;-69
2022/10/21 09:55:27;;;;;;;10.27;5.97;;;13.30;90.80;;;;;;5098605;28;20052;-69
2022/10/21 09:57:58;;;;;;;9.50;5.78;;;13.30;91.30;;;;;;5099458;28;20097;-70
2022/10/21 10:00:45;;;;;;;10.70;6.10;;;13.30;91.00;;;;;;5096800;28;20048;-70
2022/10/21 10:03:12;;;;;;;9.50;6.15;;;13.30;90.90;;;;;;5098358;28;20094;-70
2022/10/21 10:05:42;;;;;;;9.40;6.15;;;13.30;90.70;;;;;;5099725;28;20042;-70
2022/10/21 10:08:29;;;;;;;11.45;5.95;;;13.30;90.80;;;;;;5096341;28;20497;-70
2022/10/21 10:11:16;;;;;;;10.43;6.05;;;13.40;90.90;;;;;;5098129;28;20051;-70
2022/10/21 10:13:46;;;;;;;9.57;5.15;;;13.40;91.90;;;;;;5098308;27;20032;-70
2022/10/21 10:16:23;;;;;;;9.35;4.95;;;13.40;91.50;;;;;;5097896;28;20074;-69
2022/10/21 10:18:52;;;;;;;8.95;5.38;;;13.40;90.90;;;;;;5102370;27;20047;-69
2022/10/21 10:21:20;;;;;;;7.85;4.65;;;13.50;91.90;;;;;;5099547;27;20069;-69
2022/10/21 10:23:50;;;;;;;8.27;4.90;;;13.50;90.80;;;;;;5097097;28;20055;-69
2022/10/21 10:26:25;;;;;;;8.60;5.13;;;13.40;91.70;;;;;;5099611;28;20044;-70
2022/10/21 10:28:56;;;;;;;10.23;4.63;;;13.50;91.70;;;;;;5097883;28;20046;-70
2022/10/21 10:31:29;;;;;;;11.80;5.20;;;13.50;91.90;;;;;;5092906;28;20058;-70
2022/10/21 10:34:00;;;;;;;8.82;4.70;;;13.50;92.00;;;;;;5098269;28;20044;-69
2022/10/21 10:36:32;;;;;;;10.13;5.00;;;13.60;91.80;;;;;;5096053;28;20499;-69
2022/10/21 10:39:02;;;;;;;7.18;4.38;;;13.50;91.40;;;;;;5096262;28;20059;-69
2022/10/21 10:41:35;;;;;;;7.57;4.13;;;13.50;91.10;;;;;;5097703;28;20442;-69
2022/10/21 10:44:09;;;;;;;7.28;4.90;;;13.50;91.70;;;;;;5099979;28;20127;-70
2022/10/21 10:46:37;;;;;;;10.05;4.07;;;13.60;91.90;;;;;;5095747;28;20534;-68
2022/10/21 10:49:16;;;;;;;7.50;3.97;;;13.60;91.60;;;;;;5093815;28;20062;-69
2022/10/21 10:51:46;;;;;;;6.72;3.67;;;13.60;91.10;;;;;;5097378;28;20052;-70
2022/10/21 10:54:19;;;;;;;7.03;3.63;;;13.60;91.60;;;;;;5096615;28;20424;-69
2022/10/21 10:56:53;;;;;;;7.03;3.63;;;13.70;91.90;;;;;;5096639;28;20135;-70
2022/10/21 10:59:30;;;;;;;8.43;3.45;;;13.70;92.20;;;;;;5097616;28;20130;-70
2022/10/21 11:02:13;;;;;;;6.10;2.95;;;13.70;92.10;;;;;;5098309;28;20117;-74
2022/10/21 11:04:46;;;;;;;6.32;3.20;;;13.80;91.70;;;;;;5101970;28;20051;-70
2022/10/21 11:07:21;;;;;;;5.95;3.70;;;13.80;91.90;;;;;;5120209;27;20045;-74
2022/10/21 11:09:51;;;;;;;7.30;3.20;;;13.90;92.20;;;;;;5104358;28;20097;-70
2022/10/21 11:12:23;;;;;;;6.85;3.35;;;13.90;92.00;;;;;;5085993;28;20127;-70
2022/10/21 11:14:54;;;;;;;7.78;3.28;;;13.90;92.20;;;;;;5099602;28;20052;-69
2022/10/21 11:17:28;;;;;;;6.63;3.65;;;13.90;92.10;;;;;;5088956;28;20414;-69
2022/10/21 11:20:00;;;;;;;5.90;3.28;;;13.90;92.10;;;;;;5097926;28;20121;-67
2022/10/21 11:22:40;;;;;;;6.20;3.53;;;14.00;92.20;;;;;;5099822;28;20082;-69
2022/10/21 11:25:12;;;;;;;;;;;14.00;92.40;;;;;;5097354;28;20050;-69
2022/10/21 11:28:07;;;;;;;5.03;2.40;;;14.00;92.20;;;;;;5097372;28;19924;-68
2022/10/21 11:30:45;;;;;;;4.65;2.20;;;14.10;92.50;;;;;;5084183;28;20067;-70
2022/10/21 11:33:21;;;;;;;6.70;2.65;;;14.10;92.40;;;;;;5095798;27;20058;-69
2022/10/21 11:35:54;;;;;;;5.38;2.65;;;14.10;92.50;;;;;;5097280;28;20043;-69
2022/10/21 11:38:52;;;;;;;5.95;2.92;;;14.10;92.10;;;;;;5095781;28;20485;-68
2022/10/21 11:41:29;;;;;;;6.32;3.08;;;14.10;91.80;;;;;;5097270;28;20402;-69
2022/10/21 11:44:14;;;;;;;40.33;21.88;;;14.10;92.40;;;;;;5096202;27;20048;-69
2022/10/21 11:46:54;;;;;;;34.75;18.83;;;14.20;92.50;;;;;;5094829;28;20617;-68
2022/10/21 11:49:42;;;;;;;32.35;18.40;;;14.20;92.40;;;;;;5091949;28;20040;-69
2022/10/21 11:52:18;;;;;;;24.42;13.75;;;14.20;92.50;;;;;;5096403;28;20122;-69
2022/10/21 11:55:31;;;;;;;22.45;12.70;;;14.20;92.60;;;;;;5097456;28;20147;-69
2022/10/21 11:58:09;;;;;;;21.60;11.32;;;14.30;92.40;;;;;;5095835;28;20547;-68
2022/10/21 12:00:45;;;;;;;17.35;8.77;;;14.30;92.50;;;;;;5095352;28;20050;-68
2022/10/21 12:03:47;;;;;;;16.30;7.28;;;14.40;92.70;;;;;;5094117;28;20529;-68
2022/10/21 12:06:25;;;;;;;11.23;5.68;;;14.40;93.00;;;;;;5094239;28;20572;-68
2022/10/21 12:09:00;;;;;;;10.30;4.70;;;14.50;93.10;;;;;;5095860;28;20040;-69
2022/10/21 12:11:35;;;;;;;7.85;4.20;;;14.60;93.30;;;;;;5095448;28;20953;-68
2022/10/21 12:14:17;;;;;;;11.43;5.00;;;14.60;93.10;;;;;;5095686;27;20531;-67
2022/10/21 12:16:47;;;;;;;9.60;4.60;;;14.60;92.90;;;;;;5093437;28;20048;-69
2022/10/21 12:19:14;;;;;;;;;;;14.60;92.60;;;;;;5093349;28;20144;-68
2022/10/21 12:21:46;;;;;;;6.53;4.05;;;14.60;92.50;;;;;;5097061;28;19926;-68
2022/10/21 12:24:24;;;;;;;7.45;4.05;;;14.70;92.30;;;;;;5086150;28;20047;-68
2022/10/21 12:26:59;;;;;;;8.10;4.45;;;14.70;92.10;;;;;;5084430;28;20056;-68
2022/10/21 12:29:37;;;;;;;7.28;4.50;;;14.80;92.70;;;;;;5089163;28;20059;-69
2022/10/21 12:32:18;;;;;;;10.10;5.55;;;14.90;92.80;;;;;;5091454;28;20044;-67
2022/10/21 12:34:46;;;;;;;11.30;6.50;;;15.00;92.90;;;;;;5092534;28;20136;-68
2022/10/21 12:37:41;;;;;;;10.93;5.57;;;15.10;93.00;;;;;;5083846;28;20134;-68
2022/10/21 12:40:14;;;;;;;7.45;4.30;;;15.10;92.80;;;;;;5086883;28;20148;-69
2022/10/21 12:42:46;;;;;;;6.25;3.33;;;15.10;93.20;;;;;;5095572;28;20056;-69
2022/10/21 12:45:29;;;;;;;6.22;3.25;;;15.10;93.20;;;;;;5093034;28;20044;-70
2022/10/21 12:47:58;;;;;;;5.05;2.97;;;15.10;93.30;;;;;;5096651;28;20063;-68
2022/10/21 12:50:29;;;;;;;5.32;2.67;;;15.10;93.50;;;;;;5094975;28;20055;-68
2022/10/21 12:53:23;;;;;;;6.05;2.90;;;15.10;93.70;;;;;;5094445;28;20044;-69
2022/10/21 12:55:54;;;;;;;4.80;2.65;;;15.10;93.60;;;;;;5093849;28;20549;-68
2022/10/21 12:58:33;;;;;;;6.57;2.78;;;15.10;93.70;;;;;;5095800;28;20135;-67
2022/10/21 13:01:02;;;;;;;4.90;2.38;;;15.10;93.60;;;;;;5096472;28;20126;-68
2022/10/21 13:03:54;;;;;;;4.97;2.13;;;15.20;93.60;;;;;;5093822;28;20044;-69